createdAt,value
2018-07-06T00:01:00.409Z,99268.00
2018-07-06T00:03:42.258Z,99272.00
2018-07-06T00:06:24.268Z,99270.00
2018-07-06T00:09:05.959Z,99271.00
2018-07-06T00:11:47.746Z,99269.00
2018-07-06T00:14:29.854Z,99263.00
2018-07-06T00:17:11.382Z,99266.00
2018-07-06T00:19:53.485Z,99271.00
2018-07-06T00:22:35.221Z,99264.00
2018-07-06T00:25:17.118Z,99265.00
2018-07-06T00:27:58.511Z,99264.00
2018-07-06T00:30:40.473Z,99259.00
2018-07-06T00:33:22.400Z,99262.00
2018-07-06T00:36:04.576Z,99272.00
2018-07-06T00:38:45.987Z,99279.00
2018-07-06T00:41:28.016Z,99268.00
2018-07-06T00:44:10.092Z,99264.00
2018-07-06T00:46:51.877Z,99264.00
2018-07-06T00:49:33.987Z,99258.00
2018-07-06T00:52:15.886Z,99256.00
2018-07-06T00:54:57.913Z,99260.00
2018-07-06T00:57:44.604Z,99265.00
2018-07-06T01:00:26.278Z,99260.00
2018-07-06T01:03:07.870Z,99257.00
2018-07-06T01:05:49.637Z,99252.00
2018-07-06T01:08:31.913Z,99257.00
2018-07-06T01:11:13.564Z,99255.00
2018-07-06T01:13:54.811Z,99253.00
2018-07-06T01:16:36.530Z,99253.00
2018-07-06T01:19:18.234Z,99251.00
2018-07-06T01:21:59.819Z,99251.00
2018-07-06T01:24:41.627Z,99256.00
2018-07-06T01:27:23.383Z,99259.00
2018-07-06T01:30:05.444Z,99259.00
2018-07-06T01:32:47.365Z,99256.00
2018-07-06T01:35:28.978Z,99250.00
2018-07-06T01:38:10.678Z,99248.00
2018-07-06T01:40:52.605Z,99251.00
2018-07-06T01:43:34.063Z,99244.00
2018-07-06T01:46:15.787Z,99248.00
2018-07-06T01:48:57.583Z,99254.00
2018-07-06T01:51:39.596Z,99254.00
2018-07-06T01:54:21.786Z,99253.00
2018-07-06T01:57:03.142Z,99250.00
2018-07-06T01:59:45.250Z,99249.00
2018-07-06T02:02:27.148Z,99251.00
2018-07-06T02:05:09.287Z,99250.00
2018-07-06T02:07:51.324Z,99252.00
2018-07-06T02:10:32.694Z,99248.00
2018-07-06T02:13:14.630Z,99247.00
2018-07-06T02:15:56.476Z,99248.00
2018-07-06T02:18:39.132Z,99241.00
2018-07-06T02:21:20.736Z,99240.00
2018-07-06T02:24:02.099Z,99246.00
2018-07-06T02:26:44.575Z,99250.00
2018-07-06T02:29:26.667Z,99248.00
2018-07-06T02:32:08.643Z,99252.00
2018-07-06T02:34:50.828Z,99246.00
2018-07-06T02:37:32.608Z,99247.00
2018-07-06T02:40:14.489Z,99234.00
2018-07-06T02:42:56.821Z,99235.00
2018-07-06T02:45:38.737Z,99244.00
2018-07-06T02:48:20.710Z,99231.00
2018-07-06T02:51:02.595Z,99240.00
2018-07-06T02:53:44.385Z,99244.00
2018-07-06T02:56:26.020Z,99243.00
2018-07-06T02:59:06.973Z,99246.00
2018-07-06T03:01:48.723Z,99242.00
2018-07-06T03:04:30.648Z,99245.00
2018-07-06T03:07:12.680Z,99245.00
2018-07-06T03:09:54.493Z,99251.00
2018-07-06T03:12:36.651Z,99251.00
2018-07-06T03:15:18.826Z,99261.00
2018-07-06T03:18:00.508Z,99259.00
2018-07-06T03:20:41.993Z,99262.00
2018-07-06T03:23:24.004Z,99268.00
2018-07-06T03:26:04.676Z,99268.00
2018-07-06T03:28:45.772Z,99264.00
2018-07-06T03:31:26.855Z,99272.00
2018-07-06T03:34:07.844Z,99276.00
2018-07-06T03:36:48.907Z,99280.00
2018-07-06T03:39:30.106Z,99272.00
2018-07-06T03:42:11.059Z,99277.00
2018-07-06T03:44:52.340Z,99277.00
2018-07-06T03:47:33.314Z,99275.00
2018-07-06T03:50:14.560Z,99275.00
2018-07-06T03:52:55.456Z,99271.00
2018-07-06T03:55:37.566Z,99276.00
2018-07-06T03:58:18.452Z,99278.00
2018-07-06T04:00:59.572Z,99269.00
2018-07-06T04:03:43.167Z,99271.00
2018-07-06T04:06:24.435Z,99275.00
2018-07-06T04:09:05.514Z,99270.00
2018-07-06T04:11:47.612Z,99271.00
2018-07-06T04:14:28.913Z,99274.00
2018-07-06T04:17:10.200Z,99274.00
2018-07-06T04:19:51.376Z,99269.00
2018-07-06T04:22:32.435Z,99270.00
2018-07-06T04:25:13.625Z,99266.00
2018-07-06T04:27:54.690Z,99261.00
2018-07-06T04:30:35.774Z,99263.00
2018-07-06T04:33:16.858Z,99260.00
2018-07-06T04:35:58.006Z,99265.00
2018-07-06T04:38:39.485Z,99275.00
2018-07-06T04:41:20.358Z,99268.00
2018-07-06T04:44:01.461Z,99275.00
2018-07-06T04:46:42.535Z,99274.00
2018-07-06T04:49:23.492Z,99273.00
2018-07-06T04:52:05.694Z,99274.00
2018-07-06T04:54:46.690Z,99276.00
2018-07-06T04:57:27.875Z,99275.00
2018-07-06T05:00:09.153Z,99271.00
2018-07-06T05:02:50.339Z,99275.00
2018-07-06T05:05:31.430Z,99273.00
2018-07-06T05:08:12.254Z,99274.00
2018-07-06T05:10:53.253Z,99268.00
2018-07-06T05:13:34.153Z,99272.00
2018-07-06T05:16:15.493Z,99268.00
2018-07-06T05:18:56.594Z,99277.00
2018-07-06T05:21:37.497Z,99277.00
2018-07-06T05:24:18.755Z,99275.00
2018-07-06T05:26:59.721Z,99273.00
2018-07-06T05:29:41.213Z,99275.00
2018-07-06T05:32:22.402Z,99276.00
2018-07-06T05:35:03.377Z,99271.00
2018-07-06T05:37:44.349Z,99277.00
2018-07-06T05:40:25.289Z,99272.00
2018-07-06T05:43:06.267Z,99273.00
2018-07-06T05:45:47.376Z,99269.00
2018-07-06T05:48:28.304Z,99266.00
2018-07-06T05:51:09.394Z,99267.00
2018-07-06T05:53:50.635Z,99267.00
2018-07-06T05:56:31.574Z,99268.00
2018-07-06T05:59:12.814Z,99266.00
2018-07-06T06:01:53.832Z,99269.00
2018-07-06T06:04:34.914Z,99269.00
2018-07-06T06:07:15.783Z,99272.00
2018-07-06T06:09:45.945Z,99275.00
2018-07-06T06:12:16.407Z,99270.00
2018-07-06T06:14:46.927Z,99273.00
2018-07-06T06:17:17.968Z,99271.00
2018-07-06T06:19:48.249Z,99268.00
2018-07-06T06:22:18.560Z,99268.00
2018-07-06T06:24:48.927Z,99273.00
2018-07-06T06:27:19.246Z,99272.00
2018-07-06T06:29:50.353Z,99270.00
2018-07-06T06:32:20.855Z,99263.00
2018-07-06T06:34:52.322Z,99264.00
2018-07-06T06:37:22.659Z,99261.00
2018-07-06T06:39:53.576Z,99262.00
2018-07-06T06:42:23.885Z,99260.00
2018-07-06T06:44:54.418Z,99254.00
2018-07-06T06:47:25.149Z,99253.00
2018-07-06T06:49:55.425Z,99242.00
2018-07-06T06:52:26.127Z,99247.00
2018-07-06T06:54:57.277Z,99243.00
2018-07-06T06:57:27.460Z,99236.00
2018-07-06T06:59:57.972Z,99241.00
2018-07-06T07:02:28.410Z,99237.00
2018-07-06T07:04:58.796Z,99236.00
2018-07-06T07:07:29.036Z,99235.00
2018-07-06T07:09:59.407Z,99235.00
2018-07-06T07:12:29.791Z,99233.00
2018-07-06T07:15:00.130Z,99230.00
2018-07-06T07:17:30.604Z,99227.00
2018-07-06T07:20:00.945Z,99230.00
2018-07-06T07:22:31.610Z,99229.00
2018-07-06T07:25:02.038Z,99230.00
2018-07-06T07:27:32.266Z,99229.00
2018-07-06T07:30:02.659Z,99234.00
2018-07-06T07:32:33.107Z,99232.00
2018-07-06T07:35:03.671Z,99231.00
2018-07-06T07:37:34.079Z,99223.00
2018-07-06T07:40:04.743Z,99214.00
2018-07-06T07:42:36.069Z,99214.00
2018-07-06T07:45:06.701Z,99223.00
2018-07-06T07:47:37.653Z,99209.00
2018-07-06T07:50:08.165Z,99208.00
2018-07-06T07:52:49.216Z,99208.00
2018-07-06T07:55:19.526Z,99211.00
2018-07-06T07:57:49.771Z,99200.00
2018-07-06T08:00:20.389Z,99201.00
2018-07-06T08:02:50.828Z,99197.00
2018-07-06T08:05:21.247Z,99203.00
2018-07-06T08:07:51.483Z,99194.00
2018-07-06T08:10:21.857Z,99197.00
2018-07-06T08:12:52.170Z,99196.00
2018-07-06T08:15:22.818Z,99193.00
2018-07-06T08:17:53.183Z,99192.00
2018-07-06T08:20:23.655Z,99190.00
2018-07-06T08:22:53.829Z,99190.00
2018-07-06T08:25:24.103Z,99196.00
2018-07-06T08:27:54.233Z,99196.00
2018-07-06T08:30:24.729Z,99190.00
2018-07-06T08:32:55.007Z,99189.00
2018-07-06T08:35:36.064Z,99190.00
2018-07-06T08:38:07.394Z,99187.00
2018-07-06T08:40:38.362Z,99180.00
2018-07-06T08:43:08.877Z,99189.00
2018-07-06T08:45:40.282Z,99185.00
2018-07-06T08:48:10.557Z,99187.00
2018-07-06T08:50:41.133Z,99180.00
2018-07-06T08:53:11.720Z,99178.00
2018-07-06T08:55:42.237Z,99176.00
2018-07-06T08:58:12.439Z,99167.00
2018-07-06T09:00:43.281Z,99174.00
2018-07-06T09:03:13.785Z,99171.00
2018-07-06T09:05:44.751Z,99174.00
2018-07-06T09:08:14.984Z,99174.00
2018-07-06T09:10:46.656Z,99161.00
2018-07-06T09:13:18.063Z,99161.00
2018-07-06T09:15:48.338Z,99155.00
2018-07-06T09:18:18.758Z,99160.00
2018-07-06T09:20:49.127Z,99161.00
2018-07-06T09:23:19.397Z,99158.00
2018-07-06T09:25:50.015Z,99167.00
2018-07-06T09:28:20.083Z,99156.00
2018-07-06T09:30:50.488Z,99157.00
2018-07-06T09:33:21.140Z,99149.00
2018-07-06T09:35:51.966Z,99148.00
2018-07-06T09:38:23.482Z,99152.00
2018-07-06T09:40:53.931Z,99149.00
2018-07-06T09:43:24.277Z,99145.00
2018-07-06T09:45:54.668Z,99148.00
2018-07-06T09:48:24.849Z,99148.00
2018-07-06T09:50:55.356Z,99145.00
2018-07-06T09:53:26.628Z,99137.00
2018-07-06T09:55:57.354Z,99139.00
2018-07-06T09:58:27.692Z,99146.00
2018-07-06T10:00:59.040Z,99140.00
2018-07-06T10:03:30.024Z,99134.00
2018-07-06T10:06:01.046Z,99137.00
2018-07-06T10:08:31.319Z,99133.00
2018-07-06T10:11:01.899Z,99130.00
2018-07-06T10:13:32.373Z,99129.00
2018-07-06T10:16:02.839Z,99120.00
2018-07-06T10:18:33.276Z,99120.00
2018-07-06T10:21:03.849Z,99115.00
2018-07-06T10:23:34.055Z,99112.00
2018-07-06T10:26:04.432Z,99107.00
2018-07-06T10:30:51.888Z,99103.00
2018-07-06T10:33:22.299Z,99107.00
2018-07-06T10:35:52.650Z,99102.00
2018-07-06T10:38:22.963Z,99096.00
2018-07-06T10:40:53.305Z,99092.00
2018-07-06T10:43:23.606Z,99092.00
2018-07-06T10:45:54.049Z,99083.00
2018-07-06T10:48:24.962Z,99087.00
2018-07-06T10:50:55.371Z,99085.00
2018-07-06T10:53:25.921Z,99080.00
2018-07-06T10:55:56.386Z,99085.00
2018-07-06T10:58:26.694Z,99087.00
2018-07-06T11:00:56.928Z,99075.00
2018-07-06T11:03:27.436Z,99069.00
2018-07-06T11:05:58.011Z,99082.00
2018-07-06T11:08:28.338Z,99080.00
2018-07-06T11:10:58.768Z,99075.00
2018-07-06T11:13:29.130Z,99066.00
2018-07-06T11:15:59.542Z,99062.00
2018-07-06T11:18:29.911Z,99064.00
2018-07-06T11:21:00.373Z,99058.00
2018-07-06T11:23:30.824Z,99062.00
2018-07-06T11:26:00.969Z,99052.00
2018-07-06T11:28:31.249Z,99045.00
2018-07-06T11:31:01.435Z,99047.00
2018-07-06T11:33:31.749Z,99042.00
2018-07-06T11:36:02.016Z,99039.00
2018-07-06T11:38:32.408Z,99038.00
2018-07-06T11:41:02.861Z,99034.00
2018-07-06T11:43:33.333Z,99037.00
2018-07-06T11:46:04.067Z,99025.00
2018-07-06T11:48:34.198Z,99020.00
2018-07-06T11:51:04.696Z,99025.00
2018-07-06T11:53:35.049Z,99022.00
2018-07-06T11:56:05.386Z,99022.00
2018-07-06T11:58:35.513Z,99011.00
2018-07-06T12:01:05.908Z,99021.00
2018-07-06T12:03:36.472Z,99011.00
2018-07-06T12:06:06.673Z,99008.00
2018-07-06T12:08:37.006Z,99004.00
2018-07-06T12:11:07.185Z,99011.00
2018-07-06T12:13:37.583Z,99007.00
2018-07-06T12:16:07.927Z,98999.00
2018-07-06T12:18:38.321Z,98995.00
2018-07-06T12:21:08.826Z,98985.00
2018-07-06T12:23:39.169Z,98992.00
2018-07-06T12:26:09.421Z,98990.00
2018-07-06T12:28:39.519Z,98992.00
2018-07-06T12:31:10.358Z,98992.00
2018-07-06T12:33:40.763Z,98989.00
2018-07-06T12:36:11.187Z,98988.00
2018-07-06T12:38:42.314Z,98980.00
2018-07-06T12:41:12.586Z,98982.00
2018-07-06T12:43:42.990Z,98978.00
2018-07-06T12:46:13.084Z,98985.00
2018-07-06T12:48:43.460Z,98981.00
2018-07-06T12:51:14.085Z,98980.00
2018-07-06T12:53:44.446Z,98974.00
2018-07-06T12:56:14.959Z,98972.00
2018-07-06T12:58:45.241Z,98972.00
2018-07-06T13:01:15.442Z,98966.00
2018-07-06T13:03:46.160Z,98970.00
2018-07-06T13:06:16.484Z,98963.00
2018-07-06T13:08:46.790Z,98967.00
2018-07-06T13:11:17.175Z,98968.00
2018-07-06T13:13:47.369Z,98972.00
2018-07-06T13:16:17.593Z,98963.00
2018-07-06T13:18:48.890Z,98970.00
2018-07-06T13:21:19.129Z,98960.00
2018-07-06T13:23:50.797Z,98958.00
2018-07-06T13:26:20.813Z,98957.00
2018-07-06T13:28:51.057Z,98957.00
2018-07-06T13:31:21.049Z,98957.00
2018-07-06T13:33:51.287Z,98951.00
2018-07-06T13:36:21.729Z,98939.00
2018-07-06T13:38:51.954Z,98941.00
2018-07-06T13:41:22.454Z,98934.00
2018-07-06T13:43:54.335Z,98936.00
2018-07-06T13:46:24.481Z,98934.00
2018-07-06T13:48:54.738Z,98930.00
2018-07-06T13:51:24.994Z,98930.00
2018-07-06T13:53:55.501Z,98932.00
2018-07-06T13:56:25.841Z,98925.00
2018-07-06T13:58:55.882Z,98927.00
2018-07-06T14:01:26.190Z,98921.00
2018-07-06T14:03:56.713Z,98920.00
2018-07-06T14:06:26.966Z,98908.00
2018-07-06T14:08:57.065Z,98913.00
2018-07-06T14:11:27.239Z,98907.00
2018-07-06T14:13:58.027Z,98912.00
2018-07-06T14:16:28.411Z,98915.00
2018-07-06T14:18:58.755Z,98912.00
2018-07-06T14:21:29.151Z,98912.00
2018-07-06T14:24:00.011Z,98906.00
2018-07-06T14:26:30.303Z,98914.00
2018-07-06T14:29:00.673Z,98911.00
2018-07-06T14:31:31.071Z,98911.00
2018-07-06T14:34:02.088Z,98917.00
2018-07-06T14:36:32.141Z,98918.00
2018-07-06T14:39:02.429Z,98914.00
2018-07-06T14:41:32.710Z,98912.00
2018-07-06T14:44:03.109Z,98910.00
2018-07-06T14:46:33.532Z,98910.00
2018-07-06T14:49:04.008Z,98914.00
2018-07-06T14:51:34.154Z,98917.00
2018-07-06T14:54:04.284Z,98916.00
2018-07-06T14:56:34.580Z,98916.00
2018-07-06T14:59:04.757Z,98916.00
2018-07-06T15:01:34.930Z,98926.00
2018-07-06T15:04:05.202Z,98931.00
2018-07-06T15:06:35.399Z,98934.00
2018-07-06T15:09:06.281Z,98933.00
2018-07-06T15:11:36.312Z,98932.00
2018-07-06T15:14:06.652Z,98927.00
2018-07-06T15:16:36.896Z,98924.00
2018-07-06T15:19:07.243Z,98919.00
2018-07-06T15:21:37.556Z,98916.00
2018-07-06T15:24:07.797Z,98914.00
2018-07-06T15:26:38.242Z,98912.00
2018-07-06T15:29:08.495Z,98910.00
2018-07-06T15:31:38.875Z,98909.00
2018-07-06T15:34:09.595Z,98908.00
2018-07-06T15:36:39.952Z,98907.00
2018-07-06T15:39:10.157Z,98915.00
2018-07-06T15:41:40.634Z,98928.00
2018-07-06T15:44:11.029Z,98926.00
2018-07-06T15:46:41.387Z,98928.00
2018-07-06T15:49:11.340Z,98929.00
2018-07-06T15:51:41.644Z,98934.00
2018-07-06T15:54:11.778Z,98940.00
2018-07-06T15:56:42.125Z,98932.00
2018-07-06T15:59:12.272Z,98935.00
2018-07-06T16:01:42.509Z,98931.00
2018-07-06T16:04:12.842Z,98920.00
2018-07-06T16:06:43.091Z,98918.00
2018-07-06T16:09:13.539Z,98926.00
2018-07-06T16:11:43.751Z,98931.00
2018-07-06T16:14:14.212Z,98924.00
2018-07-06T16:16:44.526Z,98931.00
2018-07-06T16:19:14.825Z,98930.00
2018-07-06T16:21:44.875Z,98935.00
2018-07-06T16:24:15.154Z,98935.00
2018-07-06T16:26:45.298Z,98944.00
2018-07-06T16:29:15.560Z,98950.00
2018-07-06T16:31:45.740Z,98959.00
2018-07-06T16:34:16.055Z,98955.00
2018-07-06T16:36:46.312Z,98952.00
2018-07-06T16:39:16.514Z,98958.00
2018-07-06T16:41:46.944Z,98962.00
2018-07-06T16:44:17.540Z,98976.00
2018-07-06T16:46:47.635Z,98986.00
2018-07-06T16:49:17.867Z,98984.00
2018-07-06T16:51:48.221Z,98981.00
2018-07-06T16:54:18.389Z,98982.00
2018-07-06T16:56:48.727Z,98987.00
2018-07-06T16:59:19.068Z,98994.00
2018-07-06T17:01:49.235Z,98989.00
2018-07-06T17:04:20.096Z,98997.00
2018-07-06T17:06:50.332Z,98995.00
2018-07-06T17:09:20.493Z,98995.00
2018-07-06T17:11:50.736Z,99006.00
2018-07-06T17:14:21.106Z,99004.00
2018-07-06T17:16:51.336Z,99005.00
2018-07-06T17:19:21.514Z,98993.00
2018-07-06T17:21:51.936Z,98986.00
2018-07-06T17:24:22.056Z,98982.00
2018-07-06T17:26:52.280Z,98979.00
2018-07-06T17:29:22.434Z,98983.00
2018-07-06T17:31:52.620Z,98990.00
2018-07-06T17:34:23.017Z,98978.00
2018-07-06T17:36:53.237Z,98967.00
2018-07-06T17:39:23.650Z,98970.00
2018-07-06T17:41:53.843Z,98966.00
2018-07-06T17:44:24.088Z,98960.00
2018-07-06T17:46:54.391Z,98956.00
2018-07-06T17:49:24.597Z,98958.00
2018-07-06T17:51:55.033Z,98962.00
2018-07-06T17:54:25.317Z,98972.00
2018-07-06T17:56:55.588Z,98985.00
2018-07-06T17:59:25.631Z,98980.00
2018-07-06T18:01:56.123Z,98986.00
2018-07-06T18:04:26.345Z,98994.00
2018-07-06T18:06:56.461Z,99005.00
2018-07-06T18:09:26.583Z,99016.00
2018-07-06T18:11:57.773Z,99024.00
2018-07-06T18:14:28.183Z,99028.00
2018-07-06T18:16:58.403Z,99033.00
2018-07-06T18:19:28.529Z,99035.00
2018-07-06T18:21:59.041Z,99041.00
2018-07-06T18:24:29.333Z,99050.00
2018-07-06T18:26:59.529Z,99056.00
2018-07-06T18:29:29.857Z,99059.00
2018-07-06T18:32:00.032Z,99057.00
2018-07-06T18:34:30.262Z,99056.00
2018-07-06T18:37:00.583Z,99060.00
2018-07-06T18:39:30.871Z,99068.00
2018-07-06T18:42:00.950Z,99079.00
2018-07-06T18:44:31.129Z,99090.00
2018-07-06T18:47:01.428Z,99088.00
2018-07-06T18:49:31.656Z,99082.00
2018-07-06T18:52:02.069Z,99083.00
2018-07-06T18:54:32.226Z,99085.00
2018-07-06T18:57:02.590Z,99089.00
2018-07-06T18:59:32.767Z,99100.00
2018-07-06T19:02:02.870Z,99100.00
2018-07-06T19:04:33.286Z,99104.00
2018-07-06T19:07:03.536Z,99109.00
2018-07-06T19:09:33.641Z,99102.00
2018-07-06T19:12:03.812Z,99100.00
2018-07-06T19:14:34.167Z,99098.00
2018-07-06T19:17:04.279Z,99095.00
2018-07-06T19:19:34.540Z,99092.00
2018-07-06T19:22:04.825Z,99090.00
2018-07-06T19:24:35.169Z,99093.00
2018-07-06T19:27:05.425Z,99093.00
2018-07-06T19:29:35.513Z,99089.00
2018-07-06T19:32:05.808Z,99089.00
2018-07-06T19:34:35.992Z,99084.00
2018-07-06T19:37:06.120Z,99085.00
2018-07-06T19:39:36.722Z,99088.00
2018-07-06T19:42:07.048Z,99095.00
2018-07-06T19:44:37.400Z,99101.00
2018-07-06T19:47:07.423Z,99102.00
2018-07-06T19:49:37.676Z,99099.00
2018-07-06T19:52:08.016Z,99100.00
2018-07-06T19:54:39.132Z,99091.00
2018-07-06T19:57:09.513Z,99089.00
2018-07-06T19:59:39.679Z,99088.00
2018-07-06T20:02:10.358Z,99094.00
2018-07-06T20:04:40.969Z,99101.00
2018-07-06T20:07:11.948Z,99108.00
2018-07-06T20:09:43.328Z,99110.00
2018-07-06T20:12:14.456Z,99113.00
2018-07-06T20:14:45.421Z,99110.00
2018-07-06T20:17:16.874Z,99112.00
2018-07-06T20:19:48.405Z,99112.00
2018-07-06T20:22:18.776Z,99112.00
2018-07-06T20:24:50.418Z,99117.00
2018-07-06T20:27:21.780Z,99126.00
2018-07-06T20:29:52.957Z,99133.00
2018-07-06T20:32:23.668Z,99133.00
2018-07-06T20:34:54.966Z,99133.00
2018-07-06T20:37:25.891Z,99130.00
2018-07-06T20:39:57.330Z,99125.00
2018-07-06T20:42:28.370Z,99124.00
2018-07-06T20:44:59.350Z,99135.00
2018-07-06T20:47:31.009Z,99139.00
2018-07-06T20:50:02.321Z,99142.00
2018-07-06T20:52:34.008Z,99142.00
2018-07-06T20:55:05.379Z,99145.00
2018-07-06T20:57:36.766Z,99146.00
2018-07-06T21:00:07.875Z,99160.00
2018-07-06T21:02:39.207Z,99165.00
2018-07-06T21:05:10.366Z,99165.00
2018-07-06T21:07:41.848Z,99174.00
2018-07-06T21:10:12.328Z,99175.00
2018-07-06T21:12:43.949Z,99179.00
2018-07-06T21:15:15.132Z,99171.00
2018-07-06T21:17:45.733Z,99168.00
2018-07-06T21:20:16.955Z,99165.00
2018-07-06T21:22:47.644Z,99166.00
2018-07-06T21:25:19.191Z,99169.00
2018-07-06T21:27:50.528Z,99170.00
2018-07-06T21:30:21.903Z,99167.00
2018-07-06T21:32:53.450Z,99169.00
2018-07-06T21:35:24.017Z,99173.00
2018-07-06T21:37:55.140Z,99176.00
2018-07-06T21:40:26.275Z,99172.00
2018-07-06T21:42:58.500Z,99169.00
2018-07-06T21:45:30.082Z,99166.00
2018-07-06T21:48:00.319Z,99166.00
2018-07-06T21:50:31.308Z,99173.00
2018-07-06T21:53:02.663Z,99165.00
2018-07-06T21:55:33.341Z,99167.00
2018-07-06T21:58:04.611Z,99167.00
2018-07-06T22:00:38.985Z,99155.00
2018-07-06T22:03:11.093Z,99154.00
2018-07-06T22:05:42.250Z,99157.00
2018-07-06T22:08:13.392Z,99157.00
2018-07-06T22:10:44.745Z,99155.00
2018-07-06T22:13:16.056Z,99149.00
2018-07-06T22:15:48.091Z,99155.00
2018-07-06T22:18:20.174Z,99157.00
2018-07-06T22:20:51.405Z,99167.00
2018-07-06T22:23:21.967Z,99169.00
2018-07-06T22:25:54.143Z,99171.00
2018-07-06T22:28:24.964Z,99167.00
2018-07-06T22:30:56.017Z,99167.00
2018-07-06T22:33:26.704Z,99170.00
2018-07-06T22:35:57.314Z,99176.00
2018-07-06T22:38:28.938Z,99170.00
2018-07-06T22:40:59.931Z,99166.00
2018-07-06T22:43:32.147Z,99156.00
2018-07-06T22:46:03.424Z,99161.00
2018-07-06T22:48:34.425Z,99162.00
2018-07-06T22:51:05.589Z,99156.00
2018-07-06T22:53:37.088Z,99165.00
2018-07-06T22:56:08.358Z,99169.00
2018-07-06T22:58:39.223Z,99163.00
2018-07-06T23:01:10.349Z,99164.00
2018-07-06T23:03:41.728Z,99166.00
2018-07-06T23:06:12.034Z,99159.00
2018-07-06T23:08:43.367Z,99155.00
2018-07-06T23:11:14.952Z,99155.00
2018-07-06T23:13:46.316Z,99154.00
2018-07-06T23:16:17.504Z,99158.00
2018-07-06T23:18:48.103Z,99156.00
2018-07-06T23:21:19.640Z,99154.00
2018-07-06T23:23:49.727Z,99156.00
2018-07-06T23:26:20.357Z,99145.00
2018-07-06T23:28:51.830Z,99149.00
2018-07-06T23:31:22.767Z,99141.00
2018-07-06T23:33:54.131Z,99143.00
2018-07-06T23:36:25.804Z,99146.00
2018-07-06T23:38:57.115Z,99146.00
2018-07-06T23:41:28.490Z,99146.00
2018-07-06T23:43:59.572Z,99146.00
2018-07-06T23:46:31.211Z,99148.00
2018-07-06T23:49:02.894Z,99147.00
2018-07-06T23:51:34.003Z,99151.00
2018-07-06T23:54:05.332Z,99154.00
2018-07-06T23:56:36.435Z,99160.00
2018-07-06T23:59:08.046Z,99157.00
